Time;durP1;ratioP1;P1;durP2;ratioP2;P2;SDS_P1;SDS_P2;PMS_P1;PMS_P2;Temp;Humidity;BMP_temperature;BMP_pressure;BME280_temperature;BME280_humidity;BME280_pressure;Samples;Min_cycle;Max_cycle;Signal;HPM_P1;HPM_P2
2022/07/05 05:04:01;;;;;;;;;4.00;4.00;;;;;17.34;59.55;102141.81;2370332;28;46771;-74
2022/07/05 05:05:12;;;;;;;;;6.00;4.00;;;;;17.35;59.60;102141.78;2372680;28;45554;-74
2022/07/05 05:06:22;;;;;;;;;3.00;3.00;;;;;17.37;59.87;102147.03;2373034;28;45568;-74
2022/07/05 05:07:34;;;;;;;;;4.50;4.50;;;;;17.38;59.77;102141.66;2374663;28;45337;-74
2022/07/05 05:08:44;;;;;;;;;3.75;3.00;;;;;17.39;60.14;102140.72;2374056;28;46229;-74
2022/07/05 05:09:55;;;;;;;;;4.50;3.50;;;;;17.41;59.79;102140.66;2374952;28;45217;-75
2022/07/05 05:11:05;;;;;;;;;4.50;4.00;;;;;17.42;59.95;102143.25;2374501;28;46529;-74
2022/07/05 05:12:15;;;;;;;;;3.50;3.25;;;;;17.41;59.90;102138.88;2375369;28;44731;-74
2022/07/05 05:13:26;;;;;;;;;4.00;2.75;;;;;17.41;59.64;102149.50;2383387;28;47431;-75
2022/07/05 05:14:36;;;;;;;;;3.50;3.50;;;;;17.40;59.94;102137.16;2380968;28;45280;-74
2022/07/05 05:15:46;;;;;;;;;6.50;4.50;;;;;17.40;60.24;102144.25;2374924;28;45337;-74
2022/07/05 05:16:57;;;;;;;;;2.25;2.25;;;;;17.37;60.16;102145.22;2374154;28;45169;-74
2022/07/05 05:18:07;;;;;;;;;4.50;4.00;;;;;17.38;60.41;102144.31;2373253;28;46104;-74
2022/07/05 05:19:17;;;;;;;;;2.25;2.25;;;;;17.39;60.27;102147.81;2374941;28;44707;-74
2022/07/05 05:20:29;;;;;;;;;4.50;4.00;;;;;17.42;60.23;102145.06;2373901;28;45352;-75
2022/07/05 05:21:40;;;;;;;;;4.75;3.75;;;;;17.47;59.74;102143.06;2374377;28;45370;-75
2022/07/05 05:22:50;;;;;;;;;3.00;3.00;;;;;17.51;59.55;102144.69;2374107;28;45486;-75
2022/07/05 05:24:01;;;;;;;;;6.25;3.50;;;;;17.52;59.85;102146.41;2382818;28;45508;-75
2022/07/05 05:25:12;;;;;;;;;3.50;3.25;;;;;17.54;60.07;102144.56;2380186;28;45363;-75
2022/07/05 05:26:22;;;;;;;;;5.25;3.50;;;;;17.53;59.83;102142.81;2382836;28;44790;-75
2022/07/05 05:27:33;;;;;;;;;5.25;3.00;;;;;17.54;59.92;102149.00;2380232;28;45628;-75
2022/07/05 05:28:43;;;;;;;;;5.50;5.25;;;;;17.54;60.01;102151.66;2374277;28;45293;-75
2022/07/05 05:29:54;;;;;;;;;5.50;4.00;;;;;17.56;60.59;102154.28;2376076;28;46420;-75
2022/07/05 05:31:04;;;;;;;;;4.00;3.75;;;;;17.56;60.20;102159.59;2374233;28;45323;-75
2022/07/05 05:32:15;;;;;;;;;5.50;4.00;;;;;17.52;60.55;102156.19;2374144;28;45266;-75
2022/07/05 05:33:25;;;;;;;;;4.25;3.25;;;;;17.50;60.18;102145.63;2373960;28;45305;-75
2022/07/05 05:34:36;;;;;;;;;7.00;4.00;;;;;17.51;60.38;102154.44;2373989;28;45202;-75
2022/07/05 05:35:46;;;;;;;;;6.75;4.00;;;;;17.49;60.25;102157.16;2374233;28;45858;-75
2022/07/05 05:36:56;;;;;;;;;7.00;3.75;;;;;17.49;61.03;102154.50;2382386;28;47019;-75
2022/07/05 05:38:07;;;;;;;;;4.75;4.50;;;;;17.49;60.15;102158.94;2380256;28;45325;-75
2022/07/05 05:39:17;;;;;;;;;6.00;3.00;;;;;17.48;60.58;102166.06;2373247;28;47229;-75
2022/07/05 05:40:28;;;;;;;;;5.00;3.50;;;;;17.49;60.70;102162.47;2373700;28;44675;-75
2022/07/05 05:41:38;;;;;;;;;3.00;3.00;;;;;17.48;60.88;102158.06;2374021;28;46582;-75
2022/07/05 05:42:50;;;;;;;;;8.75;5.00;;;;;17.50;60.26;102164.22;2374316;28;45683;-75
2022/07/05 05:44:01;;;;;;;;;7.00;5.00;;;;;17.51;60.61;102162.41;2382470;28;47238;-75
2022/07/05 05:45:11;;;;;;;;;6.50;5.00;;;;;17.48;61.34;102160.72;2380320;28;44724;-75
2022/07/05 05:46:22;;;;;;;;;4.75;4.25;;;;;17.49;60.70;102167.81;2383066;28;48093;-75
2022/07/05 05:47:32;;;;;;;;;3.25;3.25;;;;;17.50;60.52;102166.00;2373479;28;45464;-75
2022/07/05 05:48:42;;;;;;;;;6.25;4.50;;;;;17.51;60.69;102165.94;2372903;28;45395;-75
2022/07/05 05:49:53;;;;;;;;;5.75;4.25;;;;;17.53;60.28;102165.91;2373237;28;45400;-75
2022/07/05 05:51:04;;;;;;;;;6.00;5.50;;;;;17.54;61.18;102168.47;2371692;28;45484;-74
2022/07/05 05:52:15;;;;;;;;;9.00;4.50;;;;;17.54;61.31;102176.47;2374316;28;45413;-75
2022/07/05 05:53:25;;;;;;;;;6.50;6.00;;;;;17.52;60.49;102173.00;2374724;28;46316;-74
2022/07/05 05:54:35;;;;;;;;;5.00;5.00;;;;;17.54;60.42;102181.78;2374577;28;44828;-75
2022/07/05 05:55:46;;;;;;;;;4.00;3.00;;;;;17.58;60.26;102184.31;2374327;28;45444;-75
2022/07/05 05:56:56;;;;;;;;;4.00;3.50;;;;;17.63;60.64;102177.88;2383285;28;44620;-75
2022/07/05 05:58:14;;;;;;;;;8.50;6.00;;;;;17.70;59.89;102181.16;2380260;28;45194;-75
2022/07/05 05:59:24;;;;;;;;;6.25;5.25;;;;;17.76;59.83;102180.03;2374506;28;45254;-75
2022/07/05 06:00:35;;;;;;;;;6.50;4.75;;;;;17.81;59.96;102179.84;2374642;28;46448;-75
2022/07/05 06:01:45;;;;;;;;;5.75;4.00;;;;;17.85;59.64;102182.31;2374513;28;44559;-74
2022/07/05 06:02:56;;;;;;;;;4.75;4.75;;;;;17.88;59.51;102181.31;2374256;28;45302;-74
2022/07/05 06:04:06;;;;;;;;;6.25;6.25;;;;;17.90;59.40;102182.16;2383712;28;45233;-74
2022/07/05 06:05:17;;;;;;;;;6.00;6.00;;;;;17.96;60.38;102181.00;2383358;28;45230;-75
2022/07/05 06:06:28;;;;;;;;;8.00;5.50;;;;;17.97;60.07;102183.63;2383329;28;45225;-75
2022/07/05 06:07:52;;;;;;;;;5.50;5.50;;;;;18.00;59.62;102182.63;2383114;28;46090;-75
2022/07/05 06:09:03;;;;;;;;;3.75;3.75;;;;;17.99;59.59;102181.75;2383105;28;45300;-75
2022/07/05 06:10:30;;;;;;;;;3.00;3.00;;;;;17.99;59.21;102176.44;2382770;28;47941;-74
2022/07/05 06:11:40;;;;;;;;;5.00;5.00;;;;;18.06;59.25;102178.84;2385180;28;45483;-75
2022/07/05 06:12:53;;;;;;;;;7.75;6.00;;;;;18.10;59.15;102185.75;2378425;28;48091;-74
2022/07/05 06:14:03;;;;;;;;;6.25;6.00;;;;;18.13;59.03;102180.31;2383477;28;44802;-75
2022/07/05 06:15:14;;;;;;;;;8.00;8.00;;;;;18.15;59.17;102186.41;2383984;28;45290;-75
2022/07/05 06:16:25;;;;;;;;;7.50;6.50;;;;;18.17;58.78;102187.25;2384011;28;45238;-75
2022/07/05 06:17:36;;;;;;;;;6.00;6.00;;;;;18.22;59.33;102184.41;2382704;28;47356;-74
2022/07/05 06:18:47;;;;;;;;;5.75;4.00;;;;;18.25;59.02;102186.09;2385825;28;45511;-74
2022/07/05 06:19:57;;;;;;;;;13.50;8.00;;;;;18.24;59.15;102174.56;2390074;28;46105;-75
2022/07/05 06:21:07;;;;;;;;;8.75;7.50;;;;;18.25;59.51;102186.09;2384423;28;44533;-74
2022/07/05 06:22:18;;;;;;;;;5.75;5.75;;;;;18.28;59.06;102185.94;2383398;28;46536;-75
2022/07/05 06:23:28;;;;;;;;;5.50;5.50;;;;;18.28;58.89;102172.63;2383998;28;45242;-74
2022/07/05 06:24:39;;;;;;;;;6.00;5.00;;;;;18.31;58.58;102185.81;2383761;28;45345;-75
2022/07/05 06:25:49;;;;;;;;;6.00;5.00;;;;;18.34;58.73;102180.38;2383873;28;45254;-74
2022/07/05 06:26:59;;;;;;;;;7.50;4.25;;;;;18.36;58.92;102177.63;2383813;28;45367;-74
2022/07/05 06:28:10;;;;;;;;;7.00;7.00;;;;;18.38;58.49;102181.94;2383632;28;45518;-75
2022/07/05 06:29:20;;;;;;;;;6.00;5.00;;;;;18.41;58.72;102178.28;2383288;28;46329;-74
2022/07/05 06:30:32;;;;;;;;;7.50;7.00;;;;;18.42;58.69;102185.34;2382958;28;45332;-75
2022/07/05 06:31:42;;;;;;;;;7.25;5.75;;;;;18.43;58.59;102173.75;2382806;28;46174;-75
2022/07/05 06:32:54;;;;;;;;;9.50;8.50;;;;;18.44;58.76;102183.50;2383613;28;45416;-75
2022/07/05 06:34:05;;;;;;;;;9.00;7.00;;;;;18.46;58.67;102178.09;2383598;28;46135;-75
2022/07/05 06:35:15;;;;;;;;;8.00;6.25;;;;;18.46;58.73;102186.06;2385862;28;45222;-75
2022/07/05 06:36:26;;;;;;;;;5.25;5.00;;;;;18.50;58.13;102179.69;2386118;28;46397;-75
2022/07/05 06:37:44;;;;;;;;;8.50;6.00;;;;;18.53;58.85;102175.09;2386567;28;45368;-75
2022/07/05 06:38:54;;;;;;;;;10.75;6.25;;;;;18.55;58.77;102188.31;2384893;28;45436;-75
2022/07/05 06:40:05;;;;;;;;;8.00;6.75;;;;;18.54;58.58;102178.63;2393587;28;45282;-75
2022/07/05 06:41:16;;;;;;;;;9.50;6.25;;;;;18.59;58.74;102184.63;2389544;28;45443;-75
2022/07/05 06:42:26;;;;;;;;;7.50;6.00;;;;;18.59;58.30;102184.63;2382534;28;45359;-74
2022/07/05 06:43:36;;;;;;;;;6.00;5.50;;;;;18.58;58.12;102187.34;2384072;28;48957;-75
2022/07/05 06:44:46;;;;;;;;;5.75;5.00;;;;;18.59;57.96;102189.94;2384585;28;45432;-75
2022/07/05 06:45:57;;;;;;;;;6.00;6.00;;;;;18.61;58.31;102195.19;2384902;28;45338;-75
2022/07/05 06:47:07;;;;;;;;;7.25;6.25;;;;;18.61;58.05;102197.84;2385229;28;44727;-75
2022/07/05 06:48:18;;;;;;;;;7.00;7.00;;;;;18.59;58.15;102199.72;2392889;28;47012;-75
2022/07/05 06:49:28;;;;;;;;;7.00;7.00;;;;;18.57;58.14;102191.78;2391602;28;45263;-75
2022/07/05 06:50:42;;;;;;;;;5.75;5.75;;;;;18.59;58.38;102189.06;2384429;28;47120;-75
2022/07/05 06:51:52;;;;;;;;;7.00;6.00;;;;;18.61;58.49;102190.75;2384561;28;45290;-75
2022/07/05 06:53:03;;;;;;;;;5.50;5.50;;;;;18.65;58.31;102192.31;2384395;28;45360;-75
2022/07/05 06:54:13;;;;;;;;;10.25;8.25;;;;;18.68;58.71;102188.66;2384689;28;44712;-75
2022/07/05 06:55:27;;;;;;;;;9.50;6.75;;;;;18.74;58.14;102193.69;2393603;28;48413;-75
2022/07/05 06:56:38;;;;;;;;;10.75;8.75;;;;;18.80;57.38;102189.03;2390992;28;44697;-75
2022/07/05 06:57:48;;;;;;;;;10.25;7.75;;;;;18.85;58.52;102195.88;2384271;28;46382;-75
2022/07/05 06:58:59;;;;;;;;;8.50;7.25;;;;;18.84;58.02;102194.16;2383845;28;45396;-75
2022/07/05 07:00:10;;;;;;;;;7.50;6.75;;;;;18.84;57.70;102194.16;2385036;28;45257;-75
2022/07/05 07:01:20;;;;;;;;;7.00;6.50;;;;;18.87;57.38;102196.69;2384428;28;44794;-75
2022/07/05 07:02:31;;;;;;;;;6.25;5.75;;;;;18.91;57.82;102192.09;2384242;28;45407;-75
2022/07/05 07:03:41;;;;;;;;;6.50;6.00;;;;;18.95;57.60;102198.13;2384436;28;45255;-75
2022/07/05 07:04:52;;;;;;;;;8.75;8.00;;;;;18.97;57.75;102196.25;2383929;28;46181;-75
2022/07/05 07:06:02;;;;;;;;;9.00;7.75;;;;;18.94;56.92;102193.75;2384170;28;46176;-75
2022/07/05 07:10:10;;;;;;;;;8.00;7.50;;;;;18.96;57.52;102194.53;2384756;28;45380;-75
2022/07/05 07:11:20;;;;;;;;;9.50;7.75;;;;;18.96;57.40;102197.22;2384135;28;45608;-75
2022/07/05 07:12:31;;;;;;;;;11.00;8.75;;;;;18.96;57.10;102197.22;2384372;28;45343;-75
2022/07/05 07:13:41;;;;;;;;;8.00;7.00;;;;;18.95;56.91;102200.78;2384519;28;45442;-74
2022/07/05 07:14:52;;;;;;;;;6.75;6.75;;;;;18.95;56.83;102195.47;2392045;28;46965;-75
2022/07/05 07:16:02;;;;;;;;;8.50;6.75;;;;;18.96;57.10;102197.22;2384107;28;44775;-75
2022/07/05 07:17:12;;;;;;;;;8.00;8.00;;;;;18.96;56.96;102199.88;2381962;28;45491;-75
2022/07/05 07:18:22;;;;;;;;;8.25;6.50;;;;;18.95;57.37;102195.47;2383859;28;44718;-75
2022/07/05 07:19:33;;;;;;;;;8.25;6.50;;;;;18.95;57.16;102199.00;2384649;28;45484;-75
2022/07/05 07:20:44;;;;;;;;;8.50;7.00;;;;;18.98;57.27;102198.00;2383113;28;44867;-75
2022/07/05 07:21:55;;;;;;;;;10.00;8.75;;;;;19.03;57.46;102195.13;2381365;28;45373;-75
2022/07/05 07:23:05;;;;;;;;;10.25;9.50;;;;;19.05;57.07;102202.13;2385092;28;45226;-75
2022/07/05 07:24:15;;;;;;;;;7.75;7.75;;;;;19.09;57.92;102206.34;2384250;28;45381;-75
2022/07/05 07:25:26;;;;;;;;;9.25;8.75;;;;;19.11;56.61;102207.16;2384746;28;45124;-75
2022/07/05 07:28:06;;;;;;;;;10.00;8.25;;;;;19.08;56.54;102207.31;2385550;28;45245;-75
2022/07/05 07:29:17;;;;;;;;;6.25;6.25;;;;;19.09;56.54;102202.81;2385064;28;45557;-75
2022/07/05 07:30:28;;;;;;;;;5.00;5.00;;;;;19.12;56.91;102203.56;2384205;28;45557;-75
2022/07/05 07:31:38;;;;;;;;;7.50;5.25;;;;;19.16;56.14;102201.59;2384954;28;45522;-75
2022/07/05 07:32:49;;;;;;;;;7.00;6.00;;;;;19.24;56.45;102198.63;2384761;28;45188;-75
2022/07/05 07:33:59;;;;;;;;;7.00;7.00;;;;;19.31;56.92;102202.72;2384363;28;46572;-75
2022/07/05 07:35:10;;;;;;;;;10.75;7.75;;;;;19.39;56.79;102204.16;2384613;28;45418;-75
2022/07/05 07:36:20;;;;;;;;;5.75;5.75;;;;;19.43;55.98;102201.28;2384640;28;46386;-75
2022/07/05 07:37:30;;;;;;;;;5.75;5.00;;;;;19.51;55.84;102205.38;2393534;28;45345;-75
2022/07/05 07:38:41;;;;;;;;;7.00;6.25;;;;;19.58;56.66;102200.63;2389575;28;45537;-75
2022/07/05 07:39:51;;;;;;;;;10.50;7.25;;;;;19.62;56.14;102204.88;2384668;28;45245;-75
2022/07/05 07:41:02;;;;;;;;;11.25;8.25;;;;;19.65;55.89;102202.06;2384949;28;45435;-75
2022/07/05 07:42:12;;;;;;;;;8.00;7.25;;;;;19.67;55.84;102202.84;2384959;28;45297;-75
2022/07/05 07:43:22;;;;;;;;;7.00;6.25;;;;;19.70;55.49;102202.69;2384548;28;46214;-75
2022/07/05 07:44:33;;;;;;;;;9.00;9.00;;;;;19.73;55.54;102207.88;2388914;28;45420;-75
2022/07/05 07:45:43;;;;;;;;;9.25;7.00;;;;;19.79;55.72;102210.25;2384724;28;46274;-75
2022/07/05 07:46:53;;;;;;;;;10.25;6.75;;;;;19.82;55.52;102205.69;2383985;28;44726;-75
2022/07/05 07:48:04;;;;;;;;;6.00;5.00;;;;;19.85;55.45;102210.88;2392980;28;46027;-75
2022/07/05 07:49:14;;;;;;;;;5.75;4.75;;;;;19.90;55.49;102200.84;2390912;28;44652;-75
2022/07/05 07:50:24;;;;;;;;;8.75;7.00;;;;;19.93;54.92;102208.69;2383622;28;45266;-75
2022/07/05 07:51:35;;;;;;;;;3.50;2.75;;;;;19.96;54.86;102208.53;2384246;28;44746;-75
2022/07/05 07:52:46;;;;;;;;;7.50;7.25;;;;;19.98;55.00;102209.31;2384664;28;46244;-75
2022/07/05 07:53:56;;;;;;;;;6.75;6.25;;;;;20.01;54.83;102205.66;2384602;28;44674;-75
2022/07/05 07:55:07;;;;;;;;;8.75;8.75;;;;;20.02;54.79;102208.25;2384332;28;46324;-75
2022/07/05 07:56:18;;;;;;;;;6.50;6.50;;;;;20.01;54.56;102206.50;2384494;28;45166;-75
2022/07/05 07:57:28;;;;;;;;;7.75;7.50;;;;;20.01;54.93;102206.50;2384765;28;46724;-75
2022/07/05 07:58:39;;;;;;;;;6.50;6.50;;;;;20.04;54.85;102217.97;2384052;28;45416;-75
2022/07/05 07:59:49;;;;;;;;;5.25;4.00;;;;;20.09;54.44;102207.94;2384639;28;45275;-75
2022/07/05 08:00:59;;;;;;;;;6.75;5.75;;;;;20.15;54.32;102212.97;2384928;28;45368;-75
2022/07/05 08:02:10;;;;;;;;;6.75;6.00;;;;;20.21;54.57;102212.69;2384598;28;46263;-75
2022/07/05 08:03:21;;;;;;;;;6.50;6.50;;;;;20.24;54.52;102206.31;2384297;28;45494;-76
2022/07/05 08:04:31;;;;;;;;;6.75;6.50;;;;;20.28;54.34;102207.88;2384225;28;45487;-75
2022/07/05 08:05:43;;;;;;;;;8.50;8.50;;;;;20.31;53.67;102206.88;2382764;28;45322;-75
2022/07/05 08:06:53;;;;;;;;;15.00;12.75;;;;;20.33;53.95;102204.97;2384135;28;45367;-75
2022/07/05 08:08:04;;;;;;;;;10.25;9.25;;;;;20.36;53.41;102204.81;2384718;28;44697;-75
2022/07/05 08:09:14;;;;;;;;;12.00;9.50;;;;;20.38;53.68;102208.28;2384401;28;46492;-75
2022/07/05 08:10:24;;;;;;;;;8.25;8.25;;;;;20.38;53.68;102204.72;2384882;28;44635;-75
2022/07/05 08:11:35;;;;;;;;;9.00;7.00;;;;;20.37;53.42;102206.56;2392894;28;45458;-75
2022/07/05 08:12:45;;;;;;;;;9.00;7.25;;;;;20.37;53.21;102209.25;2390908;28;45320;-75
2022/07/05 08:13:56;;;;;;;;;6.25;6.25;;;;;20.33;53.27;102200.50;2384152;28;45221;-75
2022/07/05 08:15:07;;;;;;;;;5.00;4.50;;;;;20.35;53.45;102200.41;2384359;28;44815;-75
2022/07/05 08:16:18;;;;;;;;;6.00;5.25;;;;;20.39;53.20;102204.69;2393159;28;47066;-75
2022/07/05 08:17:28;;;;;;;;;8.00;7.00;;;;;20.43;53.58;102206.22;2390881;28;45240;-75
2022/07/05 08:21:38;;;;;;;;;7.25;6.00;;;;;20.51;52.87;102203.16;2384343;28;45382;-75
2022/07/05 08:22:48;;;;;;;;;7.00;6.25;;;;;20.54;53.41;102203.03;2384746;28;44771;-75
2022/07/05 08:24:00;;;;;;;;;6.00;6.00;;;;;20.59;53.10;102202.78;2384319;28;46131;-75
2022/07/05 08:25:10;;;;;;;;;7.75;7.75;;;;;20.61;52.85;102203.56;2384211;28;45482;-75
2022/07/05 08:26:21;;;;;;;;;6.25;5.75;;;;;20.65;52.84;102202.44;2384376;28;47248;-75
2022/07/05 08:27:31;;;;;;;;;8.75;7.50;;;;;20.68;52.97;102204.94;2386667;28;45555;-75
2022/07/05 08:28:41;;;;;;;;;7.00;6.00;;;;;20.71;52.51;102197.72;2381782;28;46547;-75
2022/07/05 08:29:52;;;;;;;;;8.50;6.75;;;;;20.74;52.77;102200.22;2383915;28;45297;-75
2022/07/05 08:31:02;;;;;;;;;7.25;7.00;;;;;20.74;52.40;102201.06;2392226;28;46747;-75
2022/07/05 08:32:13;;;;;;;;;4.75;4.25;;;;;20.75;52.46;102204.59;2390627;28;45229;-75
2022/07/05 08:33:24;;;;;;;;;5.25;5.25;;;;;20.79;52.19;102203.53;2382483;28;45883;-75
2022/07/05 08:34:34;;;;;;;;;9.00;8.25;;;;;20.83;52.00;102204.22;2383755;28;45155;-75
2022/07/05 08:35:45;;;;;;;;;8.50;6.75;;;;;20.86;51.15;102204.06;2384037;28;46357;-75
2022/07/05 08:36:55;;;;;;;;;7.75;7.75;;;;;20.84;50.99;102198.78;2393072;28;45242;-75
2022/07/05 08:38:05;;;;;;;;;5.25;5.25;;;;;20.81;51.76;102201.63;2390518;28;45423;-75
2022/07/05 08:39:16;;;;;;;;;5.75;4.50;;;;;20.84;51.93;102201.44;2392760;28;45341;-75
2022/07/05 08:40:32;;;;;;;;;6.75;6.25;;;;;20.88;51.82;102203.03;2388989;28;45272;-75
2022/07/05 08:41:51;;;;;;;;;6.75;4.75;;;;;20.90;51.72;102189.56;2383320;28;45377;-75
2022/07/05 08:43:02;;;;;;;;;9.50;7.00;;;;;20.95;52.12;102194.66;2384601;28;45707;-75
2022/07/05 08:44:18;;;;;;;;;7.00;6.00;;;;;20.98;52.43;102198.03;2383793;28;45456;-75
2022/07/05 08:45:30;;;;;;;;;6.75;5.50;;;;;21.02;51.39;102196.09;2383747;28;45285;-75
2022/07/05 08:46:43;;;;;;;;;5.25;5.25;;;;;21.03;51.24;102192.47;2384351;28;45313;-75
2022/07/05 08:47:57;;;;;;;;;7.25;6.00;;;;;21.04;51.23;102194.19;2382656;28;45732;-75
2022/07/05 08:49:10;;;;;;;;;8.75;7.50;;;;;21.04;51.21;102188.84;2383724;28;45368;-75
2022/07/05 08:50:23;;;;;;;;;6.00;5.00;;;;;21.04;51.14;102191.50;2384030;28;46466;-75
2022/07/05 08:51:41;;;;;;;;;8.25;6.00;;;;;21.07;51.29;102185.13;2392909;28;44775;-75
2022/07/05 08:52:52;;;;;;;;;7.25;7.00;;;;;21.10;50.89;102188.50;2389363;28;46265;-75
2022/07/05 08:54:03;;;;;;;;;9.00;5.25;;;;;21.14;51.76;102190.06;2383587;28;45414;-75
2022/07/05 08:55:14;;;;;;;;;7.50;7.25;;;;;21.17;50.72;102193.50;2382967;28;45634;-75
2022/07/05 08:56:25;;;;;;;;;7.00;5.25;;;;;21.18;50.10;102200.59;2383950;28;45420;-75
2022/07/05 08:57:35;;;;;;;;;8.00;8.00;;;;;21.18;49.91;102197.91;2391759;28;48167;-75
2022/07/05 08:58:46;;;;;;;;;7.75;6.50;;;;;21.18;49.55;102190.78;2390490;28;45262;-76
2022/07/05 08:59:56;;;;;;;;;3.75;3.75;;;;;21.17;50.11;102190.84;2383863;28;46189;-75
2022/07/05 09:01:08;;;;;;;;;6.25;6.25;;;;;21.17;49.85;102188.16;2383587;28;45422;-75
2022/07/05 09:02:20;;;;;;;;;4.50;4.50;;;;;21.16;48.43;102186.47;2383500;28;46304;-76
2022/07/05 09:03:38;;;;;;;;;6.50;6.00;;;;;21.19;49.14;102196.94;2383336;28;45193;-76
2022/07/05 09:04:50;;;;;;;;;5.00;4.00;;;;;21.16;49.36;102184.66;2384053;28;45385;-76
2022/07/05 09:06:01;;;;;;;;;7.00;6.00;;;;;21.19;49.33;102183.59;2383688;28;45222;-76
2022/07/05 09:07:16;;;;;;;;;9.25;7.00;;;;;21.22;48.98;102186.97;2392109;28;46294;-75
2022/07/05 09:08:30;;;;;;;;;7.00;6.00;;;;;21.22;49.08;102189.63;2389569;28;45282;-76
2022/07/05 09:09:43;;;;;;;;;8.50;3.25;;;;;21.26;49.37;102190.31;2383616;28;45432;-76
2022/07/05 09:10:53;;;;;;;;;7.50;6.25;;;;;21.31;49.93;102188.25;2384183;28;44746;-76
2022/07/05 09:12:04;;;;;;;;;5.75;5.25;;;;;21.34;49.17;102185.41;2381976;28;46505;-76
2022/07/05 09:13:15;;;;;;;;;6.00;6.00;;;;;21.39;49.40;102182.47;2383018;28;44837;-76
2022/07/05 09:14:25;;;;;;;;;6.75;6.00;;;;;21.41;49.64;102180.56;2382595;28;46794;-75
2022/07/05 09:15:39;;;;;;;;;6.25;5.50;;;;;21.44;49.25;102185.75;2383897;28;45170;-77
2022/07/05 09:16:49;;;;;;;;;5.00;5.00;;;;;21.45;49.16;102187.50;2384127;28;45623;-76
2022/07/05 09:18:00;;;;;;;;;10.75;7.00;;;;;21.48;48.97;102181.94;2383996;28;44738;-77
2022/07/05 09:19:11;;;;;;;;;7.00;5.75;;;;;21.50;48.19;102186.38;2383960;28;45336;-76
2022/07/05 09:20:21;;;;;;;;;6.50;6.00;;;;;21.51;48.64;102188.94;2383979;28;45369;-76
2022/07/05 09:21:31;;;;;;;;;7.50;7.25;;;;;21.48;47.09;102186.47;2392587;28;47491;-76
2022/07/05 09:22:52;;;;;;;;;6.25;6.25;;;;;21.45;47.52;102187.50;2390474;28;44647;-76
2022/07/05 09:24:05;;;;;;;;;9.25;6.25;;;;;21.44;47.79;102187.56;2384246;28;45350;-76
2022/07/05 09:25:20;;;;;;;;;8.00;7.00;;;;;21.43;47.70;102185.84;2383656;28;45431;-76
2022/07/05 09:26:46;;;;;;;;;5.50;5.50;;;;;21.45;49.07;102179.47;2384112;28;46515;-76
2022/07/05 09:27:58;;;;;;;;;2.00;2.00;;;;;21.52;48.66;102182.66;2384250;28;45165;-76
2022/07/05 09:29:11;;;;;;;;;7.50;6.50;;;;;21.55;48.70;102192.31;2384282;28;45431;-77
2022/07/05 09:30:30;;;;;;;;;6.00;6.00;;;;;21.58;48.53;102178.78;2383890;28;45335;-76
2022/07/05 09:31:45;;;;;;;;;3.00;3.00;;;;;21.62;48.32;102183.00;2384110;28;45383;-76
2022/07/05 09:33:14;;;;;;;;;6.50;6.00;;;;;21.65;47.78;102185.50;2383972;28;45174;-77
2022/07/05 09:34:26;;;;;;;;;6.00;5.00;;;;;21.67;48.64;102188.06;2384043;28;45406;-77
2022/07/05 09:35:42;;;;;;;;;4.50;4.50;;;;;21.68;48.22;102187.97;2383729;28;45401;-76
2022/07/05 09:37:04;;;;;;;;;7.50;7.00;;;;;21.70;47.28;102185.22;2384041;28;46559;-77
2022/07/05 09:38:22;;;;;;;;;6.75;5.00;;;;;21.71;47.87;102186.94;2384241;28;45158;-76
2022/07/05 09:39:32;;;;;;;;;6.50;6.00;;;;;21.73;47.05;102193.06;2383799;28;46382;-76
2022/07/05 09:40:53;;;;;;;;;6.25;5.25;;;;;21.75;46.94;102187.63;2384201;28;45343;-77
2022/07/05 09:42:12;;;;;;;;;5.50;5.50;;;;;21.79;47.25;102181.16;2383960;28;45298;-76
2022/07/05 09:43:25;;;;;;;;;8.25;5.00;;;;;21.80;47.61;102177.53;2384165;28;45155;-77
2022/07/05 09:44:37;;;;;;;;;5.25;5.00;;;;;21.84;48.08;102180.88;2383809;28;45326;-77
2022/07/05 09:45:53;;;;;;;;;4.25;4.00;;;;;21.89;47.80;102184.19;2383956;28;45181;-77
2022/07/05 09:47:12;;;;;;;;;6.00;4.25;;;;;21.91;47.14;102176.91;2381826;28;46503;-77
2022/07/05 09:48:22;;;;;;;;;5.75;5.75;;;;;21.95;47.89;102183.84;2383482;28;45260;-77
2022/07/05 09:49:33;;;;;;;;;6.50;4.00;;;;;21.99;47.38;102182.69;2383461;28;45346;-77
2022/07/05 09:50:43;;;;;;;;;5.50;5.00;;;;;22.01;46.95;102179.91;2392324;28;45587;-77
2022/07/05 09:51:56;;;;;;;;;7.00;5.25;;;;;22.03;46.75;102186.03;2389574;28;45440;-77
2022/07/05 09:53:06;;;;;;;;;8.25;6.50;;;;;22.03;47.14;102181.53;2384093;28;45209;-77
2022/07/05 09:54:16;;;;;;;;;6.00;4.50;;;;;22.06;46.67;102184.97;2383863;28;45257;-77
2022/07/05 09:55:27;;;;;;;;;5.25;4.25;;;;;22.05;45.96;102183.28;2383663;28;45277;-77
2022/07/05 09:56:48;;;;;;;;;6.25;5.25;;;;;22.04;45.87;102177.06;2383818;28;46199;-78
2022/07/05 09:57:58;;;;;;;;;6.75;6.75;;;;;22.05;46.43;102188.63;2382617;28;45226;-77
2022/07/05 09:59:18;;;;;;;;;6.75;5.50;;;;;22.05;46.70;102181.44;2383870;28;45377;-77
2022/07/05 10:00:29;;;;;;;;;7.75;6.25;;;;;22.09;46.48;102185.69;2383720;28;45166;-77
2022/07/05 10:01:40;;;;;;;;;6.00;6.00;;;;;22.11;45.79;102182.91;2383090;28;45479;-77
2022/07/05 10:02:53;;;;;;;;;5.50;4.75;;;;;22.15;46.02;102184.44;2383580;28;44823;-76
2022/07/05 10:04:04;;;;;;;;;6.75;5.50;;;;;22.17;46.15;102184.34;2383665;28;46586;-77
2022/07/05 10:05:18;;;;;;;;;5.00;5.00;;;;;22.21;46.52;102177.84;2384052;28;45154;-77
2022/07/05 10:06:31;;;;;;;;;4.00;4.00;;;;;22.23;46.51;102181.28;2383952;28;46536;-76
2022/07/05 10:07:47;;;;;;;;;5.00;5.00;;;;;22.25;46.89;102180.25;2383794;28;45427;-77
2022/07/05 10:08:58;;;;;;;;;5.00;5.00;;;;;22.31;46.13;102178.16;2383782;28;45320;-77
2022/07/05 10:10:11;;;;;;;;;6.00;6.00;;;;;22.33;46.19;102179.78;2384750;28;45234;-77
2022/07/05 10:11:23;;;;;;;;;5.75;5.75;;;;;22.34;46.03;102184.22;2384964;28;46298;-77
2022/07/05 10:12:36;;;;;;;;;6.00;5.50;;;;;22.40;46.19;102182.13;2385740;28;45418;-77
2022/07/05 10:13:48;;;;;;;;;6.00;5.75;;;;;22.42;44.04;102188.22;2384855;28;45525;-77
2022/07/05 10:14:59;;;;;;;;;6.75;6.00;;;;;22.44;45.17;102178.28;2385398;28;45245;-77
2022/07/05 10:16:10;;;;;;;;;5.50;4.00;;;;;22.45;45.54;102180.84;2385319;28;45330;-77
2022/07/05 10:17:20;;;;;;;;;2.75;2.75;;;;;22.50;45.90;102188.59;2385766;28;44728;-76
2022/07/05 10:18:32;;;;;;;;;5.75;5.50;;;;;22.54;46.10;102183.94;2385173;28;45332;-77
2022/07/05 10:19:46;;;;;;;;;6.25;5.50;;;;;22.60;44.82;102178.19;2385045;28;45158;-77
2022/07/05 10:20:59;;;;;;;;;5.25;5.00;;;;;22.62;44.52;102187.00;2385018;28;45446;-77
2022/07/05 10:22:11;;;;;;;;;3.50;3.50;;;;;22.63;44.82;102180.69;2385593;28;44697;-77
2022/07/05 10:23:21;;;;;;;;;6.00;4.25;;;;;22.66;45.50;102177.81;2383689;28;46324;-77
2022/07/05 10:24:35;;;;;;;;;5.00;5.00;;;;;22.68;44.47;102186.63;2382565;28;44889;-77
2022/07/05 10:25:48;;;;;;;;;9.00;5.25;;;;;22.73;44.80;102182.81;2383992;28;46373;-77
2022/07/05 10:26:58;;;;;;;;;6.00;5.25;;;;;22.75;45.12;102172.84;2385346;28;45298;-76
2022/07/05 10:28:09;;;;;;;;;4.50;3.75;;;;;22.79;44.67;102187.81;2385174;28;45419;-76
2022/07/05 10:29:20;;;;;;;;;5.00;5.00;;;;;22.79;44.15;102182.44;2385121;28;44735;-76
2022/07/05 10:30:32;;;;;;;;;5.50;4.50;;;;;22.81;43.83;102188.56;2384579;28;46409;-77
2022/07/05 10:31:44;;;;;;;;;5.75;5.75;;;;;22.81;44.39;102176.03;2385551;28;45321;-76
2022/07/05 10:32:56;;;;;;;;;6.75;6.25;;;;;22.84;43.21;102174.97;2384631;28;45394;-76
2022/07/05 10:34:09;;;;;;;;;4.50;4.50;;;;;22.86;44.01;102181.09;2385578;28;45266;-76
2022/07/05 10:35:21;;;;;;;;;7.75;6.50;;;;;22.86;42.89;102186.47;2384823;28;46340;-77
2022/07/05 10:36:32;;;;;;;;;6.50;4.00;;;;;22.87;43.07;102180.13;2385439;28;45300;-76
2022/07/05 10:37:43;;;;;;;;;5.25;5.25;;;;;22.92;43.38;102179.84;2383819;28;46510;-77
2022/07/05 10:38:54;;;;;;;;;4.25;4.25;;;;;22.95;43.44;102181.47;2385220;28;44706;-77
2022/07/05 10:40:06;;;;;;;;;6.00;4.75;;;;;22.98;43.52;102181.28;2385088;28;45427;-76
2022/07/05 10:41:22;;;;;;;;;6.00;5.50;;;;;23.02;43.53;102182.78;2384472;28;44806;-77
2022/07/05 10:42:38;;;;;;;;;7.00;5.75;;;;;23.05;43.13;102182.59;2385038;28;45404;-77
2022/07/05 10:43:55;;;;;;;;;5.75;5.75;;;;;23.12;43.62;102181.25;2385237;28;45221;-77